Airfield :
LOGIN :

Register | Disclaimer

   EN    FR    IT 

 










Legend :    VFR   Marginal VFR   IFR   Intensive IFR   Very Intensive IFR
Visi :
Ceiling :
>= 8 km
>= 3000ft
5 to 8 km
1000 to 3000 ft
1500m to 5 km
500 to 1000 ft
800 to 1500m
200 to 500 ft
< 800m
< 200 ft
Symbols :   Thunderstorms  Fog  Heavy snow  Heavy precipitations  Wind > 20 kt
SIGMETs :     Misc.  Thunderstorms  Icing  Turbulence  Mountain Waves  Volcanic Ashes







- Airport Elevation : 215 ft
- IATA code : ABZ
- Download approach charts


EGPD - Aberdeen / Dyce

CURRENT METAR :
  • 152050Z AUTO 20008KT 150V250 9999 NCD 09/04 Q1011 NOSIG

EXPIRED METARs :
  • 152020Z AUTO 21015KT 9999 NCD 10/04 Q1011 NOSIG
  • 151950Z AUTO 21017KT 9999 NCD 10/04 Q1011 NOSIG
  • 151920Z AUTO 22016KT 9999 NCD 10/04 Q1012 NOSIG
  • 151850Z AUTO 23017KT 9999 NCD 10/04 Q1012 NOSIG
  • 151820Z AUTO 21014KT 9999 NCD 09/04 Q1012 NOSIG

TAF TAF EGPD
Valid from the 15 at 18:00 until the 16 at 18:00 UTC


151700Z 1518/1618 19018KT CAVOK
TEMPO 1518/1524 19025G35KT
PROB30
TEMPO 1522/1603 7000 -RA BKN012
No reported NOTAMs for that airfield.
1 SIGMET reported for the Scottish FIR (EGPX) :
 
Severe mountain waves
EGPX SIGMET 06 VALID 151900/152300 EGRR
EGPX SCOTTISH FIR SEV MTW FCST WI N5715 W00546 - N5802 W00405 - N5809 W00116 - N5500 W00027 - N5500 W00504 - N5715 W00546 FL030/260 STNR WKN=



MET'MAP, your aeronautical weather chart ! - Copyright ORBIFLY December 2007 - Disclaimer

ORBIFLY MET'MAP TEAM :

Programming & Development : Alexandra Zaïnal
Concept & Development : Baudouin d'Aumeries
Co-Development & Prog : Marc-Olivier Méhu
Technical & hardware support : Manuel Goepfert

Contact : metmap@orbifly.com




SOURCES & CREDITS :

   NOAA